createdAt,value
2018-12-23T00:01:38.938Z,-1.20
2018-12-23T00:04:07.899Z,-1.30
2018-12-23T00:06:37.235Z,-1.30
2018-12-23T00:09:06.127Z,-1.30
2018-12-23T00:11:35.329Z,-1.20
2018-12-23T00:14:04.836Z,-1.20
2018-12-23T00:16:33.733Z,-1.20
2018-12-23T00:19:03.376Z,-1.20
2018-12-23T00:21:32.356Z,-1.30
2018-12-23T00:24:01.539Z,-1.20
2018-12-23T00:26:30.637Z,-1.30
2018-12-23T00:29:00.036Z,-1.30
2018-12-23T00:31:29.242Z,-1.40
2018-12-23T00:33:58.315Z,-1.40
2018-12-23T00:36:27.300Z,-1.30
2018-12-23T00:38:56.436Z,-1.40
2018-12-23T00:41:25.843Z,-1.30
2018-12-23T00:43:55.783Z,-1.40
2018-12-23T00:46:24.960Z,-1.40
2018-12-23T00:48:54.161Z,-1.40
2018-12-23T00:51:23.258Z,-1.40
2018-12-23T00:53:52.891Z,-1.40
2018-12-23T00:56:21.968Z,-1.40
2018-12-23T00:58:51.373Z,-1.40
2018-12-23T01:01:20.327Z,-1.40
2018-12-23T01:03:49.352Z,-1.40
2018-12-23T01:06:18.977Z,-1.30
2018-12-23T01:08:48.072Z,-1.30
2018-12-23T01:11:17.283Z,-1.30
2018-12-23T01:13:46.274Z,-1.40
2018-12-23T01:16:16.189Z,-1.40
2018-12-23T01:18:45.105Z,-1.40
2018-12-23T01:21:14.079Z,-1.40
2018-12-23T01:23:43.075Z,-1.40
2018-12-23T01:26:11.968Z,-1.40
2018-12-23T01:28:40.965Z,-1.30
2018-12-23T01:31:10.039Z,-1.30
2018-12-23T01:33:39.368Z,-1.40
2018-12-23T01:36:08.313Z,-1.40
2018-12-23T01:38:37.299Z,-1.40
2018-12-23T01:41:06.563Z,-1.40
2018-12-23T01:43:35.660Z,-1.40
2018-12-23T01:46:05.380Z,-1.40
2018-12-23T01:48:34.367Z,-1.40
2018-12-23T01:51:03.363Z,-1.40
2018-12-23T01:53:32.774Z,-1.40
2018-12-23T01:56:02.188Z,-1.50
2018-12-23T01:58:31.375Z,-1.40
2018-12-23T02:01:00.326Z,-1.40
2018-12-23T02:03:29.368Z,-1.40
2018-12-23T02:05:58.469Z,-1.40
2018-12-23T02:08:28.077Z,-1.40
2018-12-23T02:10:57.687Z,-1.40
2018-12-23T02:13:26.683Z,-1.40
2018-12-23T02:15:56.278Z,-1.50
2018-12-23T02:18:25.496Z,-1.50
2018-12-23T02:20:54.489Z,-1.50
2018-12-23T02:23:23.587Z,-1.50
2018-12-23T02:25:52.788Z,-1.50
2018-12-23T02:28:21.735Z,-1.50
2018-12-23T02:30:50.679Z,-1.50
2018-12-23T02:33:20.331Z,-1.50
2018-12-23T02:35:55.549Z,-1.60
2018-12-23T02:38:20.535Z,-1.60
2018-12-23T02:40:49.470Z,-1.60
2018-12-23T02:43:18.772Z,-1.60
2018-12-23T02:45:48.241Z,-1.60
2018-12-23T02:48:17.238Z,-1.60
2018-12-23T02:50:46.191Z,-1.60
2018-12-23T02:53:15.308Z,-1.60
2018-12-23T02:55:45.047Z,-1.60
2018-12-23T02:58:14.247Z,-1.60
2018-12-23T03:00:43.757Z,-1.70
2018-12-23T03:03:12.958Z,-1.70
2018-12-23T03:05:41.954Z,-1.70
2018-12-23T03:08:11.052Z,-1.70
2018-12-23T03:10:40.973Z,-1.70
2018-12-23T03:13:09.865Z,-1.60
2018-12-23T03:15:39.503Z,-1.70
2018-12-23T03:18:08.779Z,-1.60
2018-12-23T03:20:38.082Z,-1.60
2018-12-23T03:23:07.080Z,-1.60
2018-12-23T03:25:35.964Z,-1.70
2018-12-23T03:28:05.603Z,-1.70
2018-12-23T03:30:34.685Z,-1.70
2018-12-23T03:33:03.888Z,-1.70
2018-12-23T03:35:33.513Z,-1.80
2018-12-23T03:38:02.698Z,-1.90
2018-12-23T03:40:32.104Z,-1.90
2018-12-23T03:43:01.205Z,-1.90
2018-12-23T03:45:30.200Z,-1.90
2018-12-23T03:47:59.650Z,-1.90
2018-12-23T03:50:29.232Z,-1.90
2018-12-23T03:52:58.521Z,-1.90
2018-12-23T03:55:27.631Z,-1.90
2018-12-23T03:57:56.718Z,-1.80
2018-12-23T04:00:25.920Z,-1.80
2018-12-23T04:02:54.936Z,-1.80
2018-12-23T04:05:24.732Z,-1.90
2018-12-23T04:07:54.752Z,-1.90
2018-12-23T04:10:23.700Z,-1.90
2018-12-23T04:12:52.747Z,-1.90
2018-12-23T04:15:21.639Z,-1.90
2018-12-23T04:17:50.612Z,-1.90
2018-12-23T04:20:19.540Z,-2.00
2018-12-23T04:22:49.263Z,-2.00
2018-12-23T04:25:18.367Z,-2.00
2018-12-23T04:27:47.480Z,-1.90
2018-12-23T04:30:16.541Z,-1.90
2018-12-23T04:32:45.537Z,-1.90
2018-12-23T04:35:14.963Z,-2.00
2018-12-23T04:37:44.966Z,-2.10
2018-12-23T04:40:13.962Z,-2.10
2018-12-23T04:42:43.371Z,-2.10
2018-12-23T04:45:12.364Z,-2.10
2018-12-23T04:47:41.649Z,-2.10
2018-12-23T04:50:11.586Z,-2.10
2018-12-23T04:52:40.659Z,-2.10
2018-12-23T04:55:09.968Z,-2.10
2018-12-23T04:57:38.936Z,-2.10
2018-12-23T05:00:08.044Z,-2.10
2018-12-23T05:02:36.979Z,-2.10
2018-12-23T05:05:06.467Z,-2.20
2018-12-23T05:07:36.334Z,-2.20
2018-12-23T05:10:05.776Z,-2.10
2018-12-23T05:12:35.071Z,-2.10
2018-12-23T05:15:04.317Z,-2.10
2018-12-23T05:17:33.314Z,-2.00
2018-12-23T05:20:02.516Z,-2.00
2018-12-23T05:22:31.467Z,-2.10
2018-12-23T05:25:00.788Z,-2.10
2018-12-23T05:27:29.814Z,-2.10
2018-12-23T05:29:58.707Z,-2.20
2018-12-23T05:32:28.591Z,-2.10
2018-12-23T05:34:57.929Z,-2.20
2018-12-23T05:37:27.359Z,-2.20
2018-12-23T05:39:56.640Z,-2.10
2018-12-23T05:42:25.841Z,-2.10
2018-12-23T05:44:54.964Z,-2.10
2018-12-23T05:47:24.039Z,-2.10
2018-12-23T05:49:53.240Z,-2.10
2018-12-23T05:52:23.827Z,-2.10
2018-12-23T05:54:52.974Z,-2.10
2018-12-23T05:57:21.970Z,-2.10
2018-12-23T05:59:50.966Z,-2.10
2018-12-23T06:02:20.065Z,-2.10
2018-12-23T06:04:49.677Z,-2.10
2018-12-23T06:07:18.674Z,-2.10
2018-12-23T06:09:47.617Z,-2.10
2018-12-23T06:12:16.667Z,-2.10
2018-12-23T06:14:45.869Z,-2.10
2018-12-23T06:17:14.819Z,-2.10
2018-12-23T06:19:43.844Z,-2.10
2018-12-23T06:22:12.915Z,-2.10
2018-12-23T06:24:41.958Z,-2.10
2018-12-23T06:27:11.563Z,-2.10
2018-12-23T06:29:40.667Z,-2.10
2018-12-23T06:32:09.663Z,-2.10
2018-12-23T06:34:38.572Z,-2.00
2018-12-23T06:37:10.242Z,-2.00
2018-12-23T06:39:38.571Z,-2.00
2018-12-23T06:42:07.995Z,-2.10
2018-12-23T06:44:37.206Z,-2.10
2018-12-23T06:47:06.407Z,-2.10
2018-12-23T06:49:35.405Z,-2.10
2018-12-23T06:52:04.950Z,-2.10
2018-12-23T06:54:33.927Z,-2.10
2018-12-23T06:57:02.901Z,-2.10
2018-12-23T06:59:32.519Z,-2.10
2018-12-23T07:02:01.616Z,-2.10
2018-12-23T07:04:31.022Z,-2.00
2018-12-23T07:07:00.737Z,-2.00
2018-12-23T07:09:29.834Z,-2.00
2018-12-23T07:11:59.041Z,-2.00
2018-12-23T07:14:28.007Z,-2.00
2018-12-23T07:16:57.748Z,-2.00
2018-12-23T07:19:26.846Z,-2.00
2018-12-23T07:21:56.150Z,-2.00
2018-12-23T07:24:25.148Z,-2.00
2018-12-23T07:26:54.347Z,-2.00
2018-12-23T07:29:23.344Z,-2.00
2018-12-23T07:31:52.341Z,-2.00
2018-12-23T07:34:21.341Z,-2.10
2018-12-23T07:36:50.847Z,-2.00
2018-12-23T07:39:20.561Z,-2.10
2018-12-23T07:41:49.504Z,-2.10
2018-12-23T07:44:18.484Z,-2.10
2018-12-23T07:46:47.447Z,-2.00
2018-12-23T07:49:16.648Z,-2.00
2018-12-23T07:51:46.259Z,-2.00
2018-12-23T07:54:15.768Z,-2.00
2018-12-23T07:56:44.663Z,-2.00
2018-12-23T07:59:13.574Z,-2.00
2018-12-23T08:01:42.861Z,-2.00
2018-12-23T08:04:12.165Z,-2.00
2018-12-23T08:06:41.774Z,-2.00
2018-12-23T08:09:10.788Z,-2.00
2018-12-23T08:11:39.872Z,-2.10
2018-12-23T08:14:08.831Z,-2.00
2018-12-23T08:16:37.967Z,-2.00
2018-12-23T08:19:07.520Z,-2.00
2018-12-23T08:21:36.474Z,-2.00
2018-12-23T08:24:05.468Z,-2.00
2018-12-23T08:26:34.568Z,-2.00
2018-12-23T08:29:03.661Z,-2.00
2018-12-23T08:31:32.575Z,-2.00
2018-12-23T08:34:02.299Z,-2.00
2018-12-23T08:36:31.216Z,-2.00
2018-12-23T08:39:00.209Z,-2.00
2018-12-23T08:41:29.110Z,-2.00
2018-12-23T08:43:58.160Z,-2.00
2018-12-23T08:46:27.053Z,-2.00
2018-12-23T08:48:56.359Z,-1.90
2018-12-23T08:51:25.561Z,-1.90
2018-12-23T08:53:54.531Z,-1.80
2018-12-23T08:56:23.639Z,-1.80
2018-12-23T08:58:52.579Z,-1.80
2018-12-23T09:01:21.559Z,-1.80
2018-12-23T09:03:50.542Z,-1.80
2018-12-23T09:06:19.984Z,-1.90
2018-12-23T09:08:49.228Z,-1.90
2018-12-23T09:11:18.211Z,-1.90
2018-12-23T09:13:47.211Z,-1.90
2018-12-23T09:16:18.008Z,-1.90
2018-12-23T09:18:47.185Z,-1.90
2018-12-23T09:21:16.386Z,-1.90
2018-12-23T09:23:46.270Z,-1.90
2018-12-23T09:26:15.193Z,-1.90
2018-12-23T09:28:44.705Z,-1.80
2018-12-23T09:31:13.811Z,-1.80
2018-12-23T09:33:43.368Z,-1.80
2018-12-23T09:36:12.414Z,-1.80
2018-12-23T09:38:41.411Z,-1.90
2018-12-23T09:41:10.747Z,-1.90
2018-12-23T09:43:39.670Z,-1.90
2018-12-23T09:46:08.647Z,-1.90
2018-12-23T09:48:37.909Z,-1.90
2018-12-23T09:51:06.909Z,-1.90
2018-12-23T09:53:36.516Z,-1.80
2018-12-23T09:56:05.835Z,-1.80
2018-12-23T09:58:34.807Z,-1.80
2018-12-23T10:01:03.769Z,-1.80
2018-12-23T10:03:33.018Z,-1.70
2018-12-23T10:06:02.299Z,-1.80
2018-12-23T10:08:31.418Z,-1.80
2018-12-23T10:11:00.416Z,-1.70
2018-12-23T10:13:29.516Z,-1.80
2018-12-23T10:15:58.481Z,-1.80
2018-12-23T10:18:27.510Z,-1.80
2018-12-23T10:20:56.608Z,-1.80
2018-12-23T10:23:25.606Z,-1.80
2018-12-23T10:25:54.497Z,-1.80
2018-12-23T10:28:23.805Z,-1.70
2018-12-23T10:30:52.800Z,-1.80
2018-12-23T10:33:22.205Z,-1.70
2018-12-23T10:35:51.295Z,-1.70
2018-12-23T10:38:20.611Z,-1.80
2018-12-23T10:40:49.815Z,-1.70
2018-12-23T10:43:19.003Z,-1.70
2018-12-23T10:45:48.344Z,-1.70
2018-12-23T10:48:17.518Z,-1.70
2018-12-23T10:50:47.267Z,-1.60
2018-12-23T10:53:16.371Z,-1.60
2018-12-23T10:55:45.354Z,-1.60
2018-12-23T10:58:14.425Z,-1.60
2018-12-23T11:00:43.807Z,-1.60
2018-12-23T11:03:12.791Z,-1.60
2018-12-23T11:05:41.828Z,-1.60
2018-12-23T11:08:11.255Z,-1.70
2018-12-23T11:10:40.640Z,-1.70
2018-12-23T11:13:09.840Z,-1.70
2018-12-23T11:16:23.395Z,-1.70
2018-12-23T11:19:05.765Z,-1.70
2018-12-23T11:21:48.062Z,-1.70
2018-12-23T11:24:31.010Z,-1.80
2018-12-23T11:27:13.365Z,-1.80
2018-12-23T11:29:56.201Z,-1.80
2018-12-23T11:32:38.402Z,-1.70
2018-12-23T11:35:20.909Z,-1.70
2018-12-23T11:38:03.461Z,-1.70
2018-12-23T11:40:46.278Z,-1.60
2018-12-23T11:43:28.757Z,-1.70
2018-12-23T11:46:11.288Z,-1.60
2018-12-23T11:48:53.966Z,-1.70
2018-12-23T11:51:36.601Z,-1.60
2018-12-23T11:54:18.922Z,-1.60
2018-12-23T11:57:01.433Z,-1.60
2018-12-23T11:59:43.624Z,-1.60
2018-12-23T12:02:25.858Z,-1.50
2018-12-23T12:05:08.333Z,-1.60
2018-12-23T12:07:50.765Z,-1.50
2018-12-23T12:10:33.334Z,-1.60
2018-12-23T12:13:16.084Z,-1.60
2018-12-23T12:15:58.505Z,-1.60
2018-12-23T12:18:41.363Z,-1.70
2018-12-23T12:21:24.392Z,-1.60
2018-12-23T12:24:07.529Z,-1.70
2018-12-23T12:26:49.785Z,-1.70
2018-12-23T12:29:32.706Z,-1.80
2018-12-23T12:32:15.062Z,-1.80
2018-12-23T12:34:59.239Z,-1.70
2018-12-23T12:37:42.005Z,-1.80
2018-12-23T12:40:22.821Z,-1.80
2018-12-23T12:43:03.633Z,-1.80
2018-12-23T12:45:46.553Z,-1.70
2018-12-23T12:48:28.788Z,-1.80
2018-12-23T12:51:11.309Z,-1.70
2018-12-23T12:53:53.981Z,-1.80
2018-12-23T12:56:37.053Z,-1.70
2018-12-23T12:59:20.177Z,-1.70
2018-12-23T13:02:02.761Z,-1.80
2018-12-23T13:04:45.300Z,-1.80
2018-12-23T13:07:27.439Z,-1.80
2018-12-23T13:10:09.885Z,-1.80
2018-12-23T13:12:50.592Z,-1.90
2018-12-23T13:15:33.593Z,-1.90
2018-12-23T13:18:16.474Z,-1.90
2018-12-23T13:20:59.640Z,-1.90
2018-12-23T13:23:41.852Z,-1.80
2018-12-23T13:26:24.119Z,-1.90
2018-12-23T13:29:06.838Z,-1.80
2018-12-23T13:31:49.589Z,-1.80
2018-12-23T13:34:32.661Z,-1.90
2018-12-23T13:37:14.875Z,-1.90
2018-12-23T13:39:58.025Z,-1.90
2018-12-23T13:42:40.805Z,-1.90
2018-12-23T13:45:23.433Z,-1.90
2018-12-23T13:48:05.573Z,-1.90
2018-12-23T13:50:47.974Z,-1.90
2018-12-23T13:53:31.210Z,-1.90
2018-12-23T13:56:13.735Z,-2.00
2018-12-23T13:58:56.410Z,-2.10
2018-12-23T14:01:39.013Z,-2.00
2018-12-23T14:04:27.390Z,-2.10
2018-12-23T14:07:21.723Z,-2.10
2018-12-23T14:10:04.344Z,-2.00
2018-12-23T14:12:46.908Z,-2.00
2018-12-23T14:15:29.301Z,-2.10
2018-12-23T14:18:12.437Z,-2.10
2018-12-23T14:20:55.449Z,-2.10
2018-12-23T14:23:37.701Z,-2.20
2018-12-23T14:26:20.132Z,-2.20
2018-12-23T14:29:03.185Z,-2.10
2018-12-23T14:31:45.921Z,-2.10
2018-12-23T14:34:28.501Z,-2.10
2018-12-23T14:37:11.519Z,-2.10
2018-12-23T14:39:54.033Z,-2.10
2018-12-23T14:42:36.829Z,-2.10
2018-12-23T14:45:19.497Z,-2.20
2018-12-23T14:48:01.697Z,-2.20
2018-12-23T14:50:44.061Z,-2.20
2018-12-23T14:53:26.417Z,-2.20
2018-12-23T14:56:08.566Z,-2.20
2018-12-23T14:58:50.845Z,-2.20
2018-12-23T15:01:33.024Z,-2.10
2018-12-23T15:04:15.461Z,-2.10
2018-12-23T15:06:56.088Z,-2.10
2018-12-23T15:09:39.052Z,-2.10
2018-12-23T15:12:21.801Z,-2.10
2018-12-23T15:15:04.617Z,-2.10
2018-12-23T15:17:47.353Z,-2.20
2018-12-23T15:20:30.085Z,-2.20
2018-12-23T15:23:12.494Z,-2.20
2018-12-23T15:25:55.171Z,-2.20
2018-12-23T15:28:37.625Z,-2.30
2018-12-23T15:31:18.456Z,-2.30
2018-12-23T15:34:01.214Z,-2.30
2018-12-23T15:36:43.988Z,-2.30
2018-12-23T15:39:26.321Z,-2.40
2018-12-23T15:42:09.141Z,-2.40
2018-12-23T15:44:51.441Z,-2.50
2018-12-23T15:47:33.778Z,-2.50
2018-12-23T15:50:16.493Z,-2.50
2018-12-23T15:52:58.919Z,-2.50
2018-12-23T15:55:41.936Z,-2.50
2018-12-23T15:58:24.478Z,-2.50
2018-12-23T16:01:06.754Z,-2.40
2018-12-23T16:03:49.408Z,-2.40
2018-12-23T16:06:32.048Z,-2.40
2018-12-23T16:09:12.829Z,-2.40
2018-12-23T16:11:55.081Z,-2.30
2018-12-23T16:14:38.041Z,-2.30
2018-12-23T16:17:20.565Z,-2.30
2018-12-23T16:20:03.685Z,-2.30
2018-12-23T16:22:46.053Z,-2.30
2018-12-23T16:25:28.384Z,-2.30
2018-12-23T16:28:10.676Z,-2.20
2018-12-23T16:30:53.306Z,-2.20
2018-12-23T16:33:36.405Z,-2.10
2018-12-23T16:36:17.275Z,-2.10
2018-12-23T16:39:00.254Z,-2.10
2018-12-23T16:41:42.904Z,-2.10
2018-12-23T16:44:25.568Z,-2.10
2018-12-23T16:47:08.397Z,-2.10
2018-12-23T16:49:50.886Z,-2.00
2018-12-23T16:52:33.437Z,-2.00
2018-12-23T16:55:15.634Z,-2.00
2018-12-23T16:57:58.208Z,-2.00
2018-12-23T17:00:40.791Z,-2.00
2018-12-23T17:03:23.398Z,-1.90
2018-12-23T17:06:05.805Z,-2.00
2018-12-23T17:08:47.957Z,-1.90
2018-12-23T17:11:30.269Z,-1.90
2018-12-23T17:14:12.793Z,-1.90
2018-12-23T17:16:55.359Z,-1.90
2018-12-23T17:19:37.630Z,-1.90
2018-12-23T17:22:19.713Z,-1.90
2018-12-23T17:25:02.529Z,-1.90
2018-12-23T17:27:44.601Z,-1.80
2018-12-23T17:30:27.419Z,-1.90
2018-12-23T17:33:08.273Z,-1.90
2018-12-23T17:35:50.560Z,-1.90
2018-12-23T17:38:33.313Z,-1.90
2018-12-23T17:41:15.809Z,-1.90
2018-12-23T17:43:58.680Z,-1.90
2018-12-23T17:46:41.040Z,-1.90
2018-12-23T17:49:24.193Z,-1.80
2018-12-23T17:52:06.492Z,-1.90
2018-12-23T17:54:48.765Z,-1.90
2018-12-23T17:57:31.002Z,-1.80
2018-12-23T18:00:13.686Z,-1.80
2018-12-23T18:02:56.153Z,-1.80
2018-12-23T18:05:38.597Z,-1.80
2018-12-23T18:08:21.065Z,-1.80
2018-12-23T18:11:03.406Z,-1.80
2018-12-23T18:13:46.095Z,-1.90
2018-12-23T18:16:28.952Z,-1.90
2018-12-23T18:19:11.653Z,-1.90
2018-12-23T18:21:54.321Z,-1.90
2018-12-23T18:24:36.825Z,-1.80
2018-12-23T18:27:19.770Z,-1.80
2018-12-23T18:30:02.738Z,-1.80
2018-12-23T18:32:45.253Z,-1.80
2018-12-23T18:35:28.112Z,-1.90
2018-12-23T18:38:10.965Z,-1.80
2018-12-23T18:40:53.640Z,-1.80
2018-12-23T18:43:36.486Z,-1.80
2018-12-23T18:46:19.245Z,-1.80
2018-12-23T18:49:02.302Z,-1.80
2018-12-23T18:51:44.759Z,-1.80
2018-12-23T18:54:26.952Z,-1.80
2018-12-23T18:57:07.717Z,-1.80
2018-12-23T18:59:50.337Z,-1.80
2018-12-23T19:02:32.485Z,-1.70
2018-12-23T19:05:14.854Z,-1.70
2018-12-23T19:07:57.082Z,-1.70
2018-12-23T19:10:42.041Z,-1.80
2018-12-23T19:13:26.325Z,-1.80
2018-12-23T19:16:09.814Z,-1.70
2018-12-23T19:18:52.914Z,-1.80
2018-12-23T19:21:35.120Z,-1.70
2018-12-23T19:24:18.049Z,-1.70
2018-12-23T19:27:00.859Z,-1.70
2018-12-23T19:29:43.034Z,-1.70
2018-12-23T19:32:25.361Z,-1.80
2018-12-23T19:35:07.867Z,-1.70
2018-12-23T19:37:50.590Z,-1.70
2018-12-23T19:40:33.083Z,-1.70
2018-12-23T19:43:16.609Z,-1.70
2018-12-23T19:45:58.949Z,-1.70
2018-12-23T19:48:41.274Z,-1.70
2018-12-23T19:51:24.524Z,-1.70
2018-12-23T19:54:07.087Z,-1.70
2018-12-23T19:56:49.521Z,-1.70
2018-12-23T19:59:32.001Z,-1.70
2018-12-23T20:02:14.721Z,-1.60
2018-12-23T20:04:57.023Z,-1.60
2018-12-23T20:07:39.708Z,-1.60
2018-12-23T20:10:22.504Z,-1.60
2018-12-23T20:13:04.860Z,-1.60
2018-12-23T20:15:47.373Z,-1.60
2018-12-23T20:18:29.584Z,-1.50
2018-12-23T20:21:12.002Z,-1.50
2018-12-23T20:23:54.736Z,-1.50
2018-12-23T20:26:37.269Z,-1.50
2018-12-23T20:29:19.759Z,-1.50
2018-12-23T20:32:02.842Z,-1.50
2018-12-23T20:34:46.013Z,-1.50
2018-12-23T20:37:28.393Z,-1.40
2018-12-23T20:40:07.572Z,-1.40
2018-12-23T20:42:59.406Z,-1.40
2018-12-23T20:45:52.730Z,-1.40
2018-12-23T20:48:55.272Z,-1.40
2018-12-23T20:52:05.364Z,-1.50
2018-12-23T20:54:50.836Z,-1.50
2018-12-23T20:57:42.025Z,-1.50
2018-12-23T21:00:39.588Z,-1.50
2018-12-23T21:03:15.825Z,-1.50
2018-12-23T21:06:08.780Z,-1.50
2018-12-23T21:08:57.127Z,-1.40
2018-12-23T21:11:39.665Z,-1.50
2018-12-23T21:14:22.004Z,-1.40
2018-12-23T21:17:13.020Z,-1.50
2018-12-23T21:20:10.445Z,-1.50
2018-12-23T21:22:58.948Z,-1.50
2018-12-23T21:25:32.289Z,-1.40
2018-12-23T21:28:14.589Z,-1.40
2018-12-23T21:30:53.896Z,-1.40
2018-12-23T21:33:43.972Z,-1.40
2018-12-23T21:36:23.181Z,-1.40
2018-12-23T21:39:13.421Z,-1.40
2018-12-23T21:41:52.861Z,-1.40
2018-12-23T21:44:44.526Z,-1.50
2018-12-23T21:47:30.045Z,-1.40
2018-12-23T21:50:09.396Z,-1.40
2018-12-23T21:52:46.223Z,-1.40
2018-12-23T21:55:25.673Z,-1.40
2018-12-23T21:58:08.120Z,-1.40
2018-12-23T22:01:16.756Z,-1.40
2018-12-23T22:04:02.175Z,-1.40
2018-12-23T22:06:57.206Z,-1.40
2018-12-23T22:09:51.939Z,-1.40
2018-12-23T22:12:56.277Z,-1.40
2018-12-23T22:15:26.884Z,-1.40
2018-12-23T22:17:57.128Z,-1.40
2018-12-23T22:20:27.664Z,-1.40
2018-12-23T22:22:58.754Z,-1.40
2018-12-23T22:25:29.157Z,-1.40
2018-12-23T22:27:59.527Z,-1.40
2018-12-23T22:30:30.022Z,-1.40
2018-12-23T22:33:00.521Z,-1.40
2018-12-23T22:35:30.915Z,-1.40
2018-12-23T22:38:01.249Z,-1.40
2018-12-23T22:40:31.625Z,-1.40
2018-12-23T22:43:02.166Z,-1.40
2018-12-23T22:45:32.884Z,-1.50
2018-12-23T22:48:03.410Z,-1.40
2018-12-23T22:50:34.018Z,-1.50
2018-12-23T22:53:04.601Z,-1.50
2018-12-23T22:55:34.839Z,-1.50
2018-12-23T22:58:05.290Z,-1.50
2018-12-23T23:00:35.680Z,-1.50
2018-12-23T23:03:09.237Z,-1.50
2018-12-23T23:05:37.982Z,-1.50
2018-12-23T23:08:08.401Z,-1.50
2018-12-23T23:10:38.787Z,-1.40
2018-12-23T23:13:18.282Z,-1.50
2018-12-23T23:15:42.149Z,-1.40
2018-12-23T23:18:12.661Z,-1.40
2018-12-23T23:20:43.103Z,-1.40
2018-12-23T23:23:13.491Z,-1.40
2018-12-23T23:25:43.899Z,-1.40
2018-12-23T23:28:14.304Z,-1.40
2018-12-23T23:30:44.554Z,-1.40
2018-12-23T23:33:15.141Z,-1.40
2018-12-23T23:35:45.514Z,-1.40
2018-12-23T23:38:15.836Z,-1.50
2018-12-23T23:40:46.269Z,-1.40
2018-12-23T23:43:16.576Z,-1.40
2018-12-23T23:45:46.916Z,-1.50
2018-12-23T23:48:17.323Z,-1.40
2018-12-23T23:50:47.716Z,-1.50
2018-12-23T23:53:18.193Z,-1.50
2018-12-23T23:55:48.582Z,-1.50
2018-12-23T23:58:18.900Z,-1.50
